createdAt,value
2022-10-06T00:04:23.288Z,9.07
2022-10-06T00:09:25.189Z,9.27
2022-10-06T00:14:27.740Z,9.85
2022-10-06T00:19:29.811Z,8.63
2022-10-06T00:24:32.218Z,8.25
2022-10-06T00:29:34.190Z,8.57
2022-10-06T00:34:39.510Z,8.77
2022-10-06T00:39:41.929Z,8.30
2022-10-06T00:44:44.853Z,8.05
2022-10-06T00:49:47.296Z,8.83
2022-10-06T00:54:49.560Z,8.13
2022-10-06T00:59:52.032Z,8.88
2022-10-06T01:04:57.597Z,8.38
2022-10-06T01:09:59.750Z,8.27
2022-10-06T01:15:02.467Z,8.25
2022-10-06T01:20:09.083Z,8.30
2022-10-06T01:25:14.371Z,8.55
2022-10-06T01:30:19.450Z,8.27
2022-10-06T01:35:22.173Z,8.00
2022-10-06T01:45:34.589Z,8.00
2022-10-06T01:50:36.812Z,7.88
2022-10-06T01:55:38.742Z,8.73
2022-10-06T02:00:41.878Z,7.70
2022-10-06T02:05:43.770Z,8.07
2022-10-06T02:15:57.864Z,8.75
2022-10-06T02:21:00.348Z,7.95
2022-10-06T02:26:04.736Z,7.85
2022-10-06T02:31:10.465Z,7.85
2022-10-06T02:36:15.829Z,7.32
2022-10-06T02:41:18.633Z,7.72
2022-10-06T02:46:22.284Z,7.60
2022-10-06T02:51:26.078Z,6.97
2022-10-06T02:56:29.220Z,7.35
2022-10-06T03:01:32.168Z,7.18
2022-10-06T03:06:39.884Z,7.50
2022-10-06T03:11:51.007Z,6.78
2022-10-06T03:17:02.073Z,5.80
2022-10-06T03:22:05.977Z,6.53
2022-10-06T03:27:22.406Z,5.78
2022-10-06T03:32:26.425Z,7.10
2022-10-06T03:37:28.852Z,6.82
2022-10-06T03:42:32.288Z,6.37
2022-10-06T03:47:34.358Z,6.73
2022-10-06T03:52:36.464Z,7.20
2022-10-06T03:57:38.591Z,7.82
2022-10-06T04:02:41.313Z,7.53
2022-10-06T04:07:43.788Z,6.97
2022-10-06T04:12:46.374Z,7.20
2022-10-06T04:17:48.378Z,6.63
2022-10-06T04:22:51.797Z,6.40
2022-10-06T04:27:53.929Z,8.32
2022-10-06T04:32:56.209Z,6.88
2022-10-06T04:37:58.521Z,6.55
2022-10-06T04:43:02.632Z,6.10
2022-10-06T04:48:05.593Z,9.25
2022-10-06T04:53:07.610Z,7.05
2022-10-06T04:58:09.985Z,6.32
2022-10-06T05:03:13.328Z,6.72
2022-10-06T05:08:16.377Z,6.43
2022-10-06T05:13:18.712Z,6.43
2022-10-06T05:18:20.761Z,6.10
2022-10-06T05:23:24.169Z,6.05
2022-10-06T05:28:28.928Z,6.00
2022-10-06T05:33:34.775Z,5.78
2022-10-06T05:38:37.520Z,5.88
2022-10-06T05:43:40.537Z,5.60
2022-10-06T05:48:52.839Z,5.77
2022-10-06T05:53:57.821Z,5.93
2022-10-06T05:59:00.656Z,6.13
2022-10-06T06:04:06.451Z,5.63
2022-10-06T06:09:14.028Z,5.70
2022-10-06T06:14:25.546Z,6.68
2022-10-06T06:19:34.149Z,5.78
2022-10-06T06:24:36.561Z,4.78
2022-10-06T06:29:40.121Z,5.70
2022-10-06T06:39:45.197Z,5.40
2022-10-06T06:44:47.508Z,5.35
2022-10-06T06:50:10.699Z,4.78
2022-10-06T06:55:14.891Z,8.23
2022-10-06T07:00:17.362Z,5.55
2022-10-06T07:05:20.356Z,5.32
2022-10-06T07:10:22.544Z,4.38
2022-10-06T07:15:43.350Z,4.40
2022-10-06T07:21:04.056Z,6.32
2022-10-06T07:26:06.246Z,4.05
2022-10-06T07:31:08.781Z,4.27
2022-10-06T07:36:11.196Z,4.05
2022-10-06T07:46:34.861Z,4.80
2022-10-06T07:52:04.219Z,3.75
2022-10-06T07:57:06.573Z,3.58
2022-10-06T08:02:08.672Z,3.83
2022-10-06T08:07:12.534Z,4.00
2022-10-06T08:12:32.899Z,4.63
2022-10-06T08:17:36.735Z,5.10
2022-10-06T08:22:40.176Z,3.95
2022-10-06T08:27:44.139Z,4.80
2022-10-06T08:32:47.665Z,4.90
2022-10-06T08:42:56.337Z,4.13
2022-10-06T08:48:07.204Z,3.72
2022-10-06T08:53:28.871Z,3.95
2022-10-06T08:58:46.350Z,4.40
2022-10-06T09:03:51.774Z,4.38
2022-10-06T09:09:22.338Z,4.07
2022-10-06T09:14:49.222Z,4.07
2022-10-06T09:20:01.479Z,3.47
2022-10-06T09:25:16.735Z,4.05
2022-10-06T09:30:21.454Z,3.60
2022-10-06T09:35:25.634Z,3.67
2022-10-06T09:40:49.263Z,3.78
2022-10-06T09:51:09.131Z,3.58
2022-10-06T09:56:15.553Z,3.42
2022-10-06T10:01:24.760Z,3.90
2022-10-06T10:06:31.891Z,3.38
2022-10-06T10:11:52.268Z,4.10
2022-10-06T10:16:54.220Z,3.70
2022-10-06T10:21:59.949Z,3.95
2022-10-06T10:27:13.332Z,3.70
2022-10-06T10:32:23.897Z,4.20
2022-10-06T10:37:37.390Z,3.65
2022-10-06T10:47:51.260Z,3.60
2022-10-06T10:52:59.763Z,3.60
2022-10-06T10:58:14.736Z,3.40
2022-10-06T11:03:17.000Z,3.20
2022-10-06T11:08:30.213Z,2.97
2022-10-06T11:13:45.918Z,2.45
2022-10-06T11:19:02.968Z,2.90
2022-10-06T11:24:14.920Z,3.63
2022-10-06T11:29:31.253Z,3.63
2022-10-06T11:34:33.122Z,5.30
2022-10-06T11:39:50.273Z,5.97
2022-10-06T11:45:15.325Z,6.00
2022-10-06T11:50:36.534Z,5.45
2022-10-06T11:55:38.705Z,3.95
2022-10-06T12:00:44.983Z,4.32
2022-10-06T12:05:56.171Z,3.28
2022-10-06T12:10:58.778Z,3.78
2022-10-06T12:22:20.916Z,4.05
2022-10-06T12:33:00.538Z,13.63
2022-10-06T12:38:26.668Z,16.48
2022-10-06T12:43:34.498Z,4.35
2022-10-06T12:49:08.544Z,3.65
2022-10-06T12:54:36.042Z,4.20
2022-10-06T12:59:40.061Z,3.05
2022-10-06T13:04:49.954Z,1.80
2022-10-06T13:10:13.250Z,2.72
2022-10-06T13:15:29.601Z,2.35
2022-10-06T13:20:47.944Z,2.35
2022-10-06T13:26:02.100Z,2.30
2022-10-06T13:31:31.436Z,2.28
2022-10-06T13:36:38.741Z,2.38
2022-10-06T13:42:01.397Z,5.28
2022-10-06T13:47:07.276Z,8.37
2022-10-06T13:52:23.978Z,2.92
2022-10-06T13:57:46.899Z,2.50
2022-10-06T14:03:07.654Z,3.92
2022-10-06T14:08:09.596Z,3.70
2022-10-06T14:13:21.754Z,5.07
2022-10-06T14:18:29.632Z,3.72
2022-10-06T14:23:42.221Z,3.13
2022-10-06T14:28:51.490Z,2.77
2022-10-06T14:33:54.914Z,3.00
2022-10-06T14:38:58.325Z,2.53
2022-10-06T14:49:13.997Z,2.08
2022-10-06T14:54:15.953Z,1.90
2022-10-06T14:59:18.193Z,1.70
2022-10-06T15:04:24.215Z,2.00
2022-10-06T15:09:29.616Z,2.92
2022-10-06T15:14:34.313Z,2.00
2022-10-06T15:19:36.406Z,1.92
2022-10-06T15:24:38.337Z,2.20
2022-10-06T15:29:40.341Z,2.90
2022-10-06T15:34:42.222Z,2.50
2022-10-06T15:39:52.677Z,2.63
2022-10-06T15:44:58.057Z,2.38
2022-10-06T15:50:00.244Z,3.00
2022-10-06T15:55:02.144Z,2.95
2022-10-06T16:00:06.101Z,3.10
2022-10-06T16:05:49.629Z,4.55
2022-10-06T16:10:53.837Z,184.25
2022-10-06T16:15:57.127Z,92.75
2022-10-06T16:20:59.050Z,41.60
2022-10-06T16:26:04.073Z,98.47
2022-10-06T16:31:06.271Z,22.55
2022-10-06T16:36:09.475Z,28.90
2022-10-06T16:41:11.990Z,26.17
2022-10-06T16:46:21.024Z,37.40
2022-10-06T16:51:25.111Z,17.60
2022-10-06T16:56:29.889Z,28.15
2022-10-06T17:01:40.881Z,30.83
2022-10-06T17:06:54.697Z,36.50
2022-10-06T17:12:01.101Z,34.80
2022-10-06T17:17:08.265Z,51.05
2022-10-06T17:22:10.417Z,49.33
2022-10-06T17:27:12.535Z,52.67
2022-10-06T17:32:15.310Z,43.20
2022-10-06T17:37:18.079Z,41.53
2022-10-06T17:42:20.350Z,49.47
2022-10-06T17:47:22.734Z,53.67
2022-10-06T17:52:24.935Z,45.30
2022-10-06T17:57:30.885Z,33.65
2022-10-06T18:02:33.326Z,39.13
2022-10-06T18:07:40.195Z,36.97
2022-10-06T18:12:42.833Z,37.10
2022-10-06T18:17:45.299Z,69.30
2022-10-06T18:22:48.502Z,65.53
2022-10-06T18:28:03.335Z,85.82
2022-10-06T18:38:28.071Z,53.92
2022-10-06T18:43:30.688Z,52.35
2022-10-06T18:48:51.398Z,47.05
2022-10-06T18:53:54.773Z,46.83
2022-10-06T18:58:59.111Z,42.65
2022-10-06T19:04:05.378Z,42.80
2022-10-06T19:09:07.511Z,42.58
2022-10-06T19:14:10.010Z,43.10
2022-10-06T19:19:15.080Z,45.35
2022-10-06T19:24:20.259Z,46.70
2022-10-06T19:29:24.146Z,44.55
2022-10-06T19:34:26.775Z,45.72
2022-10-06T19:39:30.975Z,40.60
2022-10-06T19:44:33.509Z,39.13
2022-10-06T19:49:36.107Z,41.60
2022-10-06T19:54:38.894Z,50.80
2022-10-06T19:59:41.053Z,44.63
2022-10-06T20:04:43.021Z,42.05
2022-10-06T20:09:45.050Z,39.70
2022-10-06T20:14:47.167Z,35.45
2022-10-06T20:19:51.798Z,35.88
2022-10-06T20:24:55.872Z,29.75
2022-10-06T20:29:58.178Z,30.48
2022-10-06T20:35:01.908Z,27.73
2022-10-06T20:45:24.298Z,21.65
2022-10-06T20:50:28.497Z,24.25
2022-10-06T20:55:30.400Z,25.02
2022-10-06T21:00:32.291Z,20.90
2022-10-06T21:05:34.224Z,20.85
2022-10-06T21:10:36.547Z,19.58
2022-10-06T21:15:45.208Z,17.83
2022-10-06T21:20:55.943Z,18.60
2022-10-06T21:26:02.070Z,19.30
2022-10-06T21:31:13.601Z,18.40
2022-10-06T21:36:20.929Z,19.42
2022-10-06T21:41:31.833Z,19.23
2022-10-06T21:46:51.529Z,19.38
2022-10-06T21:51:55.779Z,21.98
2022-10-06T21:56:59.262Z,20.38
2022-10-06T22:02:01.452Z,17.52
2022-10-06T22:07:03.916Z,17.75
2022-10-06T22:12:06.016Z,18.35
2022-10-06T22:17:07.948Z,18.50
2022-10-06T22:22:09.843Z,21.00
2022-10-06T22:27:11.712Z,18.88
2022-10-06T22:32:13.817Z,19.88
2022-10-06T22:37:15.871Z,18.02
2022-10-06T22:42:17.699Z,16.52
2022-10-06T22:47:19.588Z,16.42
2022-10-06T22:52:21.531Z,15.63
2022-10-06T22:57:23.458Z,16.42
2022-10-06T23:02:25.342Z,17.15
2022-10-06T23:07:27.418Z,17.08
2022-10-06T23:12:29.631Z,15.75
2022-10-06T23:17:31.703Z,14.98
2022-10-06T23:22:33.790Z,16.40
2022-10-06T23:27:36.127Z,17.17
2022-10-06T23:32:40.750Z,16.75
2022-10-06T23:37:43.001Z,19.30
2022-10-06T23:42:45.079Z,16.35
2022-10-06T23:47:47.334Z,16.50
2022-10-06T23:52:49.450Z,20.38
2022-10-06T23:57:51.376Z,19.52
